Meteorología y climatología de Navarra
Datos de la estación - Meteo Navarra

Estación de Bardenas (El Yugo) GN

Altitud 486 m.


Datos desde el 09/11/2018 hasta el 10/11/2018 en horario solar
Los datos son PROVISIONALES

Anterior Página 1 de 1 Siguiente Descargar: Formato para Excel 2000 o superior   Formato csv   Formato para OpenOffice Calc
Fecha Temperatura Humedad relativa Radiación global Insolación Precipitación Velocidad viento 10 m Velocidad viento 10 m Dirección viento 10 m
ºC % W/m² s l/m² m/s km/h º
09/11/2018 0:00 7.6 100 0.0 0 0.0 4.7 16.8 355
09/11/2018 0:10 7.5 100 0.0 0 0.0 4.1 14.6 357
09/11/2018 0:20 7.5 100 0.0 0 0.0 4.2 15.2 351
09/11/2018 0:30 7.5 100 0.0 0 0.0 4.2 15.2 351
09/11/2018 0:40 7.5 100 0.0 0 0.0 4.4 15.8 357
09/11/2018 0:50 7.5 100 0.0 0 0.0 4.4 15.7 348
09/11/2018 1:00 7.6 99 0.0 0 0.1 3.5 12.7 336
09/11/2018 1:10 7.7 99 0.0 0 0.0 3.4 12.3 329
09/11/2018 1:20 7.6 96 0.0 0 0.0 3.4 12.1 329
09/11/2018 1:30 7.6 95 0.0 0 0.0 3.2 11.5 325
09/11/2018 1:40 7.5 95 0.0 0 0.0 3.4 12.3 335
09/11/2018 1:50 7.4 95 0.0 0 0.0 3.6 12.9 338
09/11/2018 2:00 7.4 95 0.0 0 0.0 4.2 15.1 330
09/11/2018 2:10 7.6 91 0.0 0 0.0 4.7 16.8 314
09/11/2018 2:20 7.6 89 0.0 0 0.0 4.4 15.7 313
09/11/2018 2:30 7.5 89 0.0 0 0.0 4.2 15.0 314
09/11/2018 2:40 7.5 89 0.0 0 0.0 4.7 17.0 311
09/11/2018 2:50 7.4 88 0.0 0 0.0 5.3 19.2 308
09/11/2018 3:00 7.3 88 0.0 0 0.0 5.5 19.9 305
09/11/2018 3:10 7.3 87 0.0 0 0.0 5.6 20.1 311
09/11/2018 3:20 7.4 86 0.0 0 0.0 5.8 21.0 314
09/11/2018 3:30 7.4 86 0.0 0 0.0 5.5 19.8 310
09/11/2018 3:40 7.5 86 0.0 0 0.0 6.2 22.2 319
09/11/2018 3:50 7.6 84 0.0 0 0.0 6.3 22.8 322
09/11/2018 4:00 7.5 85 0.0 0 0.0 5.7 20.4 327
09/11/2018 4:10 7.4 86 0.0 0 0.0 5.8 21.0 327
09/11/2018 4:20 7.2 87 0.0 0 0.0 6.2 22.2 327
09/11/2018 4:30 7.1 87 0.0 0 0.0 6.3 22.6 328
09/11/2018 4:40 7.2 86 0.0 0 0.0 6.7 24.1 321
09/11/2018 4:50 7.3 85 0.0 0 0.0 6.5 23.3 316
09/11/2018 5:00 7.2 84 0.0 0 0.0 6.7 24.1 314
09/11/2018 5:10 7.2 84 0.0 0 0.0 6.9 24.9 310
09/11/2018 5:20 7.1 84 0.0 0 0.0 6.2 22.5 314
09/11/2018 5:30 7.1 83 0.0 0 0.0 7.0 25.0 315
09/11/2018 5:40 7.2 82 0.0 0 0.0 6.9 24.7 313
09/11/2018 5:50 7.3 81 0.0 0 0.0 6.9 24.8 315
09/11/2018 6:00 7.3 80 0.0 0 0.0 7.2 25.8 314
09/11/2018 6:10 7.4 80 0.0 0 0.0 7.3 26.4 310
09/11/2018 6:20 7.2 80 0.0 0 0.0 6.5 23.3 308
09/11/2018 6:30 7.1 81 0.0 0 0.0 6.0 21.7 311
09/11/2018 6:40 7.1 81 0.0 0 0.0 6.0 21.5 311
09/11/2018 6:50 7.1 81 0.0 0 0.0 5.7 20.6 311
09/11/2018 7:00 7.1 81 0.0 0 0.0 5.7 20.6 310
09/11/2018 7:10 7.2 81 10.0 0 0.0 6.0 21.5 306
09/11/2018 7:20 7.1 82 24.2 0 0.0 5.7 20.4 305
09/11/2018 7:30 7.2 82 29.1 0 0.0 5.2 18.5 307
09/11/2018 7:40 7.2 82 33.2 0 0.0 4.5 16.3 309
09/11/2018 7:50 7.2 82 35.7 0 0.0 4.8 17.4 308
09/11/2018 8:00 7.2 83 36.0 0 0.0 5.6 20.0 303
09/11/2018 8:10 7.3 82 62.6 0 0.0 5.7 20.7 303
09/11/2018 8:20 7.4 82 61.5 0 0.0 6.0 21.5 306
09/11/2018 8:30 7.4 81 207.7 494 0.0 6.5 23.4 303
09/11/2018 8:40 8.0 80 335.5 600 0.0 5.8 20.9 303
09/11/2018 8:50 8.5 78 217.6 600 0.0 5.5 19.7 310
09/11/2018 9:00 8.6 79 188.8 598 0.0 5.3 19.0 305
09/11/2018 9:10 8.6 79 180.5 350 0.0 5.4 19.6 304
09/11/2018 9:20 8.7 78 154.2 0 0.0 5.1 18.2 314
09/11/2018 9:30 8.9 77 204.1 418 0.0 5.9 21.2 303
09/11/2018 9:40 9.2 75 242.2 600 0.0 6.3 22.8 299
09/11/2018 9:50 9.6 73 243.2 600 0.0 7.0 25.1 298
09/11/2018 10:00 9.7 73 245.2 600 0.0 6.0 21.6 305
09/11/2018 10:10 9.8 73 237.6 458 0.0 5.8 20.9 310
09/11/2018 10:20 9.8 73 352.8 366 0.0 6.4 23.1 304
09/11/2018 10:30 10.6 70 499.9 600 0.0 7.0 25.3 302
09/11/2018 10:40 11.1 68 454.5 600 0.0 6.7 24.2 307
09/11/2018 10:50 10.8 68 336.3 564 0.0 6.2 22.4 306
09/11/2018 11:00 11.5 67 532.4 600 0.0 5.9 21.3 305
09/11/2018 11:10 12.1 64 536.4 600 0.0 5.8 20.8 302
09/11/2018 11:20 12.2 63 543.6 600 0.0 6.8 24.3 294
09/11/2018 11:30 11.9 62 548.7 600 0.0 7.8 28.0 304
09/11/2018 11:40 12.1 61 551.9 600 0.0 7.8 28.2 304
09/11/2018 11:50 12.1 61 553.9 600 0.0 6.5 23.4 307
09/11/2018 12:00 12.4 61 553.6 600 0.0 6.1 22.1 302
09/11/2018 12:10 12.5 59 552.1 600 0.0 5.8 21.0 309
09/11/2018 12:20 12.7 59 548.8 600 0.0 4.9 17.7 320
09/11/2018 12:30 12.7 59 544.6 600 0.0 5.3 18.9 322
09/11/2018 12:40 12.9 59 538.0 600 0.0 4.4 15.7 321
09/11/2018 12:50 13.1 58 529.6 600 0.0 4.5 16.2 332
09/11/2018 13:00 13.2 57 520.9 600 0.0 4.3 15.6 336
09/11/2018 13:10 13.3 57 504.8 600 0.0 4.1 14.7 339
09/11/2018 13:20 13.2 57 495.6 600 0.0 4.4 15.9 337
09/11/2018 13:30 13.5 57 473.2 600 0.0 3.8 13.8 323
09/11/2018 13:40 13.4 56 442.0 600 0.0 4.1 14.9 326
09/11/2018 13:50 13.4 56 450.7 600 0.0 4.6 16.4 323
09/11/2018 14:00 13.4 56 435.1 600 0.0 3.7 13.2 341
09/11/2018 14:10 13.3 57 391.8 600 0.0 3.7 13.3 329
09/11/2018 14:20 13.5 58 378.1 600 0.0 2.9 10.4 334
09/11/2018 14:30 13.5 59 366.3 600 0.0 3.5 12.6 308
09/11/2018 14:40 13.4 60 354.5 600 0.0 2.7 9.5 312
09/11/2018 14:50 13.5 60 326.6 600 0.0 2.3 8.2 329
09/11/2018 15:00 13.5 60 284.1 600 0.0 2.1 7.4 348
09/11/2018 15:10 13.3 60 252.2 600 0.0 2.1 7.4 337
09/11/2018 15:20 13.0 61 223.4 600 0.0 2.3 8.4 339
09/11/2018 15:30 12.8 62 196.3 600 0.0 1.7 6.1 357
09/11/2018 15:40 12.8 62 169.1 600 0.0 1.7 6.2 351
09/11/2018 15:50 12.5 63 142.2 600 0.0 2.3 8.3 335
09/11/2018 16:00 12.1 64 96.5 390 0.0 2.1 7.4 340
09/11/2018 16:10 11.5 66 67.7 362 0.0 2.1 7.6 339
09/11/2018 16:20 11.6 65 68.4 600 0.0 2.1 7.4 330
09/11/2018 16:30 11.5 65 18.8 146 0.0 2.2 8.0 322
09/11/2018 16:40 10.9 66 0.0 0 0.0 2.3 8.2 326
09/11/2018 16:50 10.7 67 0.0 0 0.0 2.3 8.2 318
09/11/2018 17:00 10.6 67 0.0 0 0.0 2.2 8.0 321
09/11/2018 17:10 10.6 66 0.0 0 0.0 2.2 7.8 321
09/11/2018 17:20 10.6 65 0.0 0 0.0 2.3 8.3 331
09/11/2018 17:30 10.5 65 0.0 0 0.0 2.5 8.8 335
09/11/2018 17:40 10.5 64 0.0 0 0.0 2.1 7.5 338
09/11/2018 17:50 10.6 64 0.0 0 0.0 1.6 5.8 349
09/11/2018 18:00 10.7 63 0.0 0 0.0 1.9 6.9 352
09/11/2018 18:10 10.7 63 0.0 0 0.0 1.9 6.9 357
09/11/2018 18:20 10.9 63 0.0 0 0.0 2.5 8.9 353
09/11/2018 18:30 10.9 61 0.0 0 0.0 2.4 8.5 350
09/11/2018 18:40 10.8 61 0.0 0 0.0 2.1 7.6 351
09/11/2018 18:50 10.6 61 0.0 0 0.0 1.9 6.8 8
09/11/2018 19:00 10.4 62 0.0 0 0.0 0.8 2.8 45
09/11/2018 19:10 10.2 67 0.0 0 0.0 1.9 6.8 199
09/11/2018 19:20 9.7 70 0.0 0 0.0 2.3 8.2 183
09/11/2018 19:30 9.9 69 0.0 0 0.0 2.6 9.4 187
09/11/2018 19:40 10.1 67 0.0 0 0.0 2.7 9.6 186
09/11/2018 19:50 10.1 66 0.0 0 0.0 2.6 9.4 184
09/11/2018 20:00 10.0 67 0.0 0 0.0 2.9 10.5 179
09/11/2018 20:10 9.8 68 0.0 0 0.0 3.1 11.2 183
09/11/2018 20:20 9.7 69 0.0 0 0.0 4.2 15.1 190
09/11/2018 20:30 9.7 70 0.0 0 0.0 5.1 18.3 204
09/11/2018 20:40 9.7 70 0.0 0 0.0 5.0 17.8 200
09/11/2018 20:50 9.6 70 0.0 0 0.0 5.5 19.7 204
09/11/2018 21:00 9.8 71 0.0 0 0.0 5.9 21.3 210
09/11/2018 21:10 9.9 71 0.0 0 0.0 5.7 20.5 210
09/11/2018 21:20 10.1 71 0.0 0 0.0 5.9 21.1 210
09/11/2018 21:30 10.3 70 0.0 0 0.0 5.9 21.1 208
09/11/2018 21:40 10.2 71 0.0 0 0.0 6.1 21.9 208
09/11/2018 21:50 10.2 72 0.0 0 0.0 5.8 20.7 209
09/11/2018 22:00 10.0 73 0.0 0 0.0 5.7 20.3 208
09/11/2018 22:10 10.0 74 0.0 0 0.0 5.1 18.3 202
09/11/2018 22:20 9.6 76 0.0 0 0.0 5.1 18.4 187
09/11/2018 22:30 9.4 78 0.0 0 0.0 6.7 24.0 192
09/11/2018 22:40 9.5 77 0.0 0 0.0 7.0 25.3 192
09/11/2018 22:50 9.6 76 0.0 0 0.0 6.8 24.6 198
09/11/2018 23:00 9.6 77 0.0 0 0.0 6.8 24.4 189
09/11/2018 23:10 9.6 78 0.0 0 0.0 7.3 26.2 192
09/11/2018 23:20 9.8 77 0.0 0 0.0 6.8 24.4 195
09/11/2018 23:30 10.0 77 0.0 0 0.0 6.5 23.2 194
09/11/2018 23:40 10.2 76 0.0 0 0.0 6.3 22.5 202
09/11/2018 23:50 10.4 75 0.0 0 0.0 5.9 21.3 202
Anterior Página 1 de 1 Siguiente

NOTA: Tipo de datos según el color:
   - Valores diarios o 10 minutos correctos
   - Valores diarios calculados a partir de un número de datos 10 minutos menor que 144 y mayor que 120, o de un número de datos semihorarios menor que 48 y mayor que 40 (caso de las estaciones de Riegos de Navarra y del MARM)
   - Valores diez minutos estimados


Contacto        Enlaces        Aviso legal